LFAT

Le Touquet-Côte d'Opale Airport

Le Touquet-Paris-Plage, France
METAR LFAT 141930Z AUTO 26009KT 220V290 9999 BKN009 BKN014 18/16 Q1019
Observed Flight Rules
Aug-14 @ 19:30 UTC (25 minutes ago) Instrument Flight Rules
Wind Visibility Clouds
260° at 9 knots 10,000+ meters
  • Broken at 900' AGL
  • Broken at 1,400' AGL
Temperatures Readings
Current 18°C / 64°F
Dewpoint 16°C / 61°F
Humidity 88%
Altimeter 30.09" Hg
Pressure 1019 hPa
Elevation 14
METAR LFAT 141930Z AUTO 26009KT 220V290 9999 BKN009 BKN014 18/16 Q1019
Observed Flight Rules
Aug-14 @ 19:30 UTC
(25 minutes ago)
IFR
Wind Visibility
260° at 9 knots 10,000+ meters
Clouds
  • Broken at 900' AGL
  • Broken at 1,400' AGL
Temperature Dewpoint
18°C / 64°F 16°C / 61°F
Humidity Altimeter Pressure
88% 30.09" Hg 1019 hPa